sensor_id;sensor_type;location;lat;lon;timestamp;P1;durP1;ratioP1;P2;durP2;ratioP2
25199;SDS011;33094;48.782;9.162;2023-04-16T00:01:28;30.30;;;21.13;;
25199;SDS011;33094;48.782;9.162;2023-04-16T00:03:53;30.42;;;21.30;;
25199;SDS011;33094;48.782;9.162;2023-04-16T00:06:19;31.92;;;21.38;;
25199;SDS011;33094;48.782;9.162;2023-04-16T00:08:45;32.58;;;20.73;;
25199;SDS011;33094;48.782;9.162;2023-04-16T00:11:11;30.55;;;21.23;;
25199;SDS011;33094;48.782;9.162;2023-04-16T00:13:36;29.48;;;20.63;;
25199;SDS011;33094;48.782;9.162;2023-04-16T00:16:02;27.42;;;19.50;;
25199;SDS011;33094;48.782;9.162;2023-04-16T00:18:28;28.80;;;20.48;;
25199;SDS011;33094;48.782;9.162;2023-04-16T00:20:54;31.40;;;21.42;;
25199;SDS011;33094;48.782;9.162;2023-04-16T00:23:19;32.83;;;21.13;;
25199;SDS011;33094;48.782;9.162;2023-04-16T00:25:45;29.77;;;19.50;;
25199;SDS011;33094;48.782;9.162;2023-04-16T00:28:11;31.08;;;19.48;;
25199;SDS011;33094;48.782;9.162;2023-04-16T00:30:37;30.85;;;19.13;;
25199;SDS011;33094;48.782;9.162;2023-04-16T00:33:02;30.80;;;21.05;;
25199;SDS011;33094;48.782;9.162;2023-04-16T00:35:28;30.02;;;19.77;;
25199;SDS011;33094;48.782;9.162;2023-04-16T00:37:54;31.88;;;20.15;;
25199;SDS011;33094;48.782;9.162;2023-04-16T00:40:20;32.55;;;21.20;;
25199;SDS011;33094;48.782;9.162;2023-04-16T00:42:46;29.23;;;20.52;;
25199;SDS011;33094;48.782;9.162;2023-04-16T00:45:11;31.58;;;21.20;;
25199;SDS011;33094;48.782;9.162;2023-04-16T00:47:37;31.00;;;20.65;;
25199;SDS011;33094;48.782;9.162;2023-04-16T00:50:03;32.08;;;21.73;;
25199;SDS011;33094;48.782;9.162;2023-04-16T00:52:30;30.10;;;19.85;;
25199;SDS011;33094;48.782;9.162;2023-04-16T00:54:57;28.08;;;20.00;;
25199;SDS011;33094;48.782;9.162;2023-04-16T00:57:23;28.90;;;20.77;;
25199;SDS011;33094;48.782;9.162;2023-04-16T00:59:48;30.23;;;21.02;;
25199;SDS011;33094;48.782;9.162;2023-04-16T01:02:15;26.92;;;19.20;;
25199;SDS011;33094;48.782;9.162;2023-04-16T01:04:41;27.58;;;19.40;;
25199;SDS011;33094;48.782;9.162;2023-04-16T01:07:07;28.25;;;19.48;;
25199;SDS011;33094;48.782;9.162;2023-04-16T01:09:33;28.42;;;20.40;;
25199;SDS011;33094;48.782;9.162;2023-04-16T01:11:58;28.92;;;19.67;;
25199;SDS011;33094;48.782;9.162;2023-04-16T01:14:24;27.83;;;18.35;;
25199;SDS011;33094;48.782;9.162;2023-04-16T01:16:49;27.55;;;19.45;;
25199;SDS011;33094;48.782;9.162;2023-04-16T01:19:15;27.92;;;18.90;;
25199;SDS011;33094;48.782;9.162;2023-04-16T01:21:41;26.30;;;17.88;;
25199;SDS011;33094;48.782;9.162;2023-04-16T01:24:06;28.60;;;19.08;;
25199;SDS011;33094;48.782;9.162;2023-04-16T01:26:32;32.13;;;19.35;;
25199;SDS011;33094;48.782;9.162;2023-04-16T01:28:58;25.17;;;16.88;;
25199;SDS011;33094;48.782;9.162;2023-04-16T01:31:24;25.30;;;18.10;;
25199;SDS011;33094;48.782;9.162;2023-04-16T01:33:50;30.00;;;19.58;;
25199;SDS011;33094;48.782;9.162;2023-04-16T01:36:15;27.65;;;18.73;;
25199;SDS011;33094;48.782;9.162;2023-04-16T01:38:41;27.17;;;19.02;;
25199;SDS011;33094;48.782;9.162;2023-04-16T01:41:07;26.83;;;18.38;;
25199;SDS011;33094;48.782;9.162;2023-04-16T01:43:32;26.17;;;17.52;;
25199;SDS011;33094;48.782;9.162;2023-04-16T01:48:44;27.05;;;18.08;;
25199;SDS011;33094;48.782;9.162;2023-04-16T01:51:10;23.02;;;16.20;;
25199;SDS011;33094;48.782;9.162;2023-04-16T01:53:36;24.98;;;16.40;;
25199;SDS011;33094;48.782;9.162;2023-04-16T01:56:02;19.35;;;13.85;;
25199;SDS011;33094;48.782;9.162;2023-04-16T01:58:28;23.88;;;15.75;;
25199;SDS011;33094;48.782;9.162;2023-04-16T02:00:54;23.98;;;17.00;;
25199;SDS011;33094;48.782;9.162;2023-04-16T02:03:20;24.23;;;16.83;;
25199;SDS011;33094;48.782;9.162;2023-04-16T02:05:48;23.70;;;16.58;;
25199;SDS011;33094;48.782;9.162;2023-04-16T02:08:14;23.50;;;15.97;;
25199;SDS011;33094;48.782;9.162;2023-04-16T02:10:40;23.75;;;16.25;;
25199;SDS011;33094;48.782;9.162;2023-04-16T02:13:05;24.98;;;16.58;;
25199;SDS011;33094;48.782;9.162;2023-04-16T02:15:31;25.98;;;17.42;;
25199;SDS011;33094;48.782;9.162;2023-04-16T02:17:57;24.35;;;16.55;;
25199;SDS011;33094;48.782;9.162;2023-04-16T02:20:22;26.83;;;16.98;;
25199;SDS011;33094;48.782;9.162;2023-04-16T02:22:48;24.50;;;17.27;;
25199;SDS011;33094;48.782;9.162;2023-04-16T02:25:14;27.02;;;16.45;;
25199;SDS011;33094;48.782;9.162;2023-04-16T02:27:39;22.40;;;16.95;;
25199;SDS011;33094;48.782;9.162;2023-04-16T02:30:05;25.58;;;16.30;;
25199;SDS011;33094;48.782;9.162;2023-04-16T02:32:31;26.25;;;16.42;;
25199;SDS011;33094;48.782;9.162;2023-04-16T02:34:57;27.58;;;17.48;;
25199;SDS011;33094;48.782;9.162;2023-04-16T02:37:22;27.92;;;17.90;;
25199;SDS011;33094;48.782;9.162;2023-04-16T02:42:15;25.17;;;17.67;;
25199;SDS011;33094;48.782;9.162;2023-04-16T02:44:41;26.80;;;17.38;;
25199;SDS011;33094;48.782;9.162;2023-04-16T02:47:06;27.17;;;17.40;;
25199;SDS011;33094;48.782;9.162;2023-04-16T02:49:32;28.52;;;17.90;;
25199;SDS011;33094;48.782;9.162;2023-04-16T02:51:59;29.15;;;17.15;;
25199;SDS011;33094;48.782;9.162;2023-04-16T02:54:25;25.85;;;17.45;;
25199;SDS011;33094;48.782;9.162;2023-04-16T02:56:50;26.73;;;17.58;;
25199;SDS011;33094;48.782;9.162;2023-04-16T02:59:16;29.73;;;17.88;;
25199;SDS011;33094;48.782;9.162;2023-04-16T03:01:42;30.85;;;19.50;;
25199;SDS011;33094;48.782;9.162;2023-04-16T03:04:07;28.98;;;18.73;;
25199;SDS011;33094;48.782;9.162;2023-04-16T03:06:33;29.65;;;17.15;;
25199;SDS011;33094;48.782;9.162;2023-04-16T03:08:58;31.08;;;19.05;;
25199;SDS011;33094;48.782;9.162;2023-04-16T03:11:24;29.25;;;16.80;;
25199;SDS011;33094;48.782;9.162;2023-04-16T03:13:50;35.70;;;19.15;;
25199;SDS011;33094;48.782;9.162;2023-04-16T03:16:15;29.05;;;17.75;;
25199;SDS011;33094;48.782;9.162;2023-04-16T03:18:41;28.52;;;18.55;;
25199;SDS011;33094;48.782;9.162;2023-04-16T03:21:06;32.13;;;18.08;;
25199;SDS011;33094;48.782;9.162;2023-04-16T03:23:32;25.63;;;16.92;;
25199;SDS011;33094;48.782;9.162;2023-04-16T03:25:58;27.25;;;17.30;;
25199;SDS011;33094;48.782;9.162;2023-04-16T03:28:23;28.95;;;18.75;;
25199;SDS011;33094;48.782;9.162;2023-04-16T03:30:50;29.65;;;18.02;;
25199;SDS011;33094;48.782;9.162;2023-04-16T03:33:17;30.67;;;18.55;;
25199;SDS011;33094;48.782;9.162;2023-04-16T03:35:43;32.40;;;19.20;;
25199;SDS011;33094;48.782;9.162;2023-04-16T03:38:08;30.98;;;19.90;;
25199;SDS011;33094;48.782;9.162;2023-04-16T03:40:34;30.65;;;18.50;;
25199;SDS011;33094;48.782;9.162;2023-04-16T03:42:59;30.17;;;18.67;;
25199;SDS011;33094;48.782;9.162;2023-04-16T03:45:25;34.42;;;18.95;;
25199;SDS011;33094;48.782;9.162;2023-04-16T03:47:51;36.17;;;20.35;;
25199;SDS011;33094;48.782;9.162;2023-04-16T03:50:17;32.60;;;17.98;;
25199;SDS011;33094;48.782;9.162;2023-04-16T03:52:43;32.25;;;19.27;;
25199;SDS011;33094;48.782;9.162;2023-04-16T03:55:10;31.90;;;20.17;;
25199;SDS011;33094;48.782;9.162;2023-04-16T03:57:36;33.35;;;19.60;;
25199;SDS011;33094;48.782;9.162;2023-04-16T04:00:02;28.50;;;18.65;;
25199;SDS011;33094;48.782;9.162;2023-04-16T04:02:28;33.88;;;19.65;;
25199;SDS011;33094;48.782;9.162;2023-04-16T04:04:54;30.77;;;18.38;;
25199;SDS011;33094;48.782;9.162;2023-04-16T04:07:20;33.67;;;20.52;;
25199;SDS011;33094;48.782;9.162;2023-04-16T04:09:45;33.30;;;19.30;;
25199;SDS011;33094;48.782;9.162;2023-04-16T04:12:11;39.05;;;21.30;;
25199;SDS011;33094;48.782;9.162;2023-04-16T04:14:37;34.30;;;20.80;;
25199;SDS011;33094;48.782;9.162;2023-04-16T04:17:04;29.42;;;19.52;;
25199;SDS011;33094;48.782;9.162;2023-04-16T04:19:30;30.20;;;18.00;;
25199;SDS011;33094;48.782;9.162;2023-04-16T04:21:56;31.50;;;19.23;;
25199;SDS011;33094;48.782;9.162;2023-04-16T04:24:22;33.92;;;20.23;;
25199;SDS011;33094;48.782;9.162;2023-04-16T04:26:48;35.10;;;18.20;;
25199;SDS011;33094;48.782;9.162;2023-04-16T04:29:13;32.53;;;18.25;;
25199;SDS011;33094;48.782;9.162;2023-04-16T04:31:39;34.25;;;18.98;;
25199;SDS011;33094;48.782;9.162;2023-04-16T04:34:04;33.63;;;18.77;;
25199;SDS011;33094;48.782;9.162;2023-04-16T04:36:30;33.85;;;18.88;;
25199;SDS011;33094;48.782;9.162;2023-04-16T04:38:56;34.38;;;18.88;;
25199;SDS011;33094;48.782;9.162;2023-04-16T04:41:22;30.27;;;17.80;;
25199;SDS011;33094;48.782;9.162;2023-04-16T04:43:48;30.70;;;17.52;;
25199;SDS011;33094;48.782;9.162;2023-04-16T04:46:13;37.28;;;19.35;;
25199;SDS011;33094;48.782;9.162;2023-04-16T04:48:39;33.67;;;18.83;;
25199;SDS011;33094;48.782;9.162;2023-04-16T04:51:05;31.15;;;18.55;;
25199;SDS011;33094;48.782;9.162;2023-04-16T04:53:30;34.88;;;18.65;;
25199;SDS011;33094;48.782;9.162;2023-04-16T04:55:56;33.55;;;17.42;;
25199;SDS011;33094;48.782;9.162;2023-04-16T04:58:22;34.92;;;18.85;;
25199;SDS011;33094;48.782;9.162;2023-04-16T05:00:47;34.35;;;17.73;;
25199;SDS011;33094;48.782;9.162;2023-04-16T05:03:17;34.63;;;18.20;;
25199;SDS011;33094;48.782;9.162;2023-04-16T05:05:45;32.67;;;17.77;;
25199;SDS011;33094;48.782;9.162;2023-04-16T05:08:10;32.08;;;19.13;;
25199;SDS011;33094;48.782;9.162;2023-04-16T05:10:36;33.80;;;18.75;;
25199;SDS011;33094;48.782;9.162;2023-04-16T05:13:02;36.58;;;19.30;;
25199;SDS011;33094;48.782;9.162;2023-04-16T05:15:27;32.70;;;18.17;;
25199;SDS011;33094;48.782;9.162;2023-04-16T05:17:53;35.33;;;18.67;;
25199;SDS011;33094;48.782;9.162;2023-04-16T05:20:20;33.75;;;16.20;;
25199;SDS011;33094;48.782;9.162;2023-04-16T05:22:47;30.55;;;16.65;;
25199;SDS011;33094;48.782;9.162;2023-04-16T05:25:14;31.10;;;16.25;;
25199;SDS011;33094;48.782;9.162;2023-04-16T05:27:41;36.90;;;20.15;;
25199;SDS011;33094;48.782;9.162;2023-04-16T05:30:07;41.00;;;21.35;;
25199;SDS011;33094;48.782;9.162;2023-04-16T05:32:33;40.38;;;21.40;;
25199;SDS011;33094;48.782;9.162;2023-04-16T05:34:58;46.38;;;23.95;;
25199;SDS011;33094;48.782;9.162;2023-04-16T05:37:24;52.58;;;27.20;;
25199;SDS011;33094;48.782;9.162;2023-04-16T05:39:49;55.25;;;28.08;;
25199;SDS011;33094;48.782;9.162;2023-04-16T05:42:15;58.50;;;28.77;;
25199;SDS011;33094;48.782;9.162;2023-04-16T05:44:41;59.83;;;28.25;;
25199;SDS011;33094;48.782;9.162;2023-04-16T05:47:06;60.50;;;30.27;;
25199;SDS011;33094;48.782;9.162;2023-04-16T05:49:33;58.35;;;29.70;;
25199;SDS011;33094;48.782;9.162;2023-04-16T05:52:01;58.70;;;29.23;;
25199;SDS011;33094;48.782;9.162;2023-04-16T05:54:27;61.33;;;31.10;;
25199;SDS011;33094;48.782;9.162;2023-04-16T05:56:52;67.13;;;31.75;;
25199;SDS011;33094;48.782;9.162;2023-04-16T05:59:18;71.78;;;33.22;;
25199;SDS011;33094;48.782;9.162;2023-04-16T06:01:44;85.40;;;34.85;;
25199;SDS011;33094;48.782;9.162;2023-04-16T06:04:10;72.55;;;32.78;;
25199;SDS011;33094;48.782;9.162;2023-04-16T06:06:35;77.55;;;35.80;;
25199;SDS011;33094;48.782;9.162;2023-04-16T06:09:01;70.22;;;33.55;;
25199;SDS011;33094;48.782;9.162;2023-04-16T06:11:31;76.82;;;36.40;;
25199;SDS011;33094;48.782;9.162;2023-04-16T06:13:56;75.88;;;35.88;;
25199;SDS011;33094;48.782;9.162;2023-04-16T06:16:22;73.85;;;36.10;;
25199;SDS011;33094;48.782;9.162;2023-04-16T06:18:48;77.30;;;36.35;;
25199;SDS011;33094;48.782;9.162;2023-04-16T06:21:13;83.35;;;36.08;;
25199;SDS011;33094;48.782;9.162;2023-04-16T06:23:40;76.75;;;37.30;;
25199;SDS011;33094;48.782;9.162;2023-04-16T06:26:05;79.00;;;37.47;;
25199;SDS011;33094;48.782;9.162;2023-04-16T06:28:31;82.65;;;36.25;;
25199;SDS011;33094;48.782;9.162;2023-04-16T06:30:57;76.00;;;35.85;;
25199;SDS011;33094;48.782;9.162;2023-04-16T06:33:23;66.88;;;32.40;;
25199;SDS011;33094;48.782;9.162;2023-04-16T06:35:49;77.00;;;35.00;;
25199;SDS011;33094;48.782;9.162;2023-04-16T06:38:14;69.20;;;35.28;;
25199;SDS011;33094;48.782;9.162;2023-04-16T06:40:40;67.90;;;35.03;;
25199;SDS011;33094;48.782;9.162;2023-04-16T06:43:06;82.40;;;37.42;;
25199;SDS011;33094;48.782;9.162;2023-04-16T06:45:31;68.03;;;32.85;;
25199;SDS011;33094;48.782;9.162;2023-04-16T06:47:57;75.32;;;36.30;;
25199;SDS011;33094;48.782;9.162;2023-04-16T06:50:26;74.78;;;35.67;;
25199;SDS011;33094;48.782;9.162;2023-04-16T06:52:52;74.85;;;37.38;;
25199;SDS011;33094;48.782;9.162;2023-04-16T06:55:18;76.80;;;37.97;;
25199;SDS011;33094;48.782;9.162;2023-04-16T06:57:44;73.70;;;36.20;;
25199;SDS011;33094;48.782;9.162;2023-04-16T07:00:10;73.95;;;36.17;;
25199;SDS011;33094;48.782;9.162;2023-04-16T07:02:36;72.80;;;35.70;;
25199;SDS011;33094;48.782;9.162;2023-04-16T07:05:02;79.05;;;36.35;;
25199;SDS011;33094;48.782;9.162;2023-04-16T07:07:27;75.05;;;36.50;;
25199;SDS011;33094;48.782;9.162;2023-04-16T07:09:53;74.07;;;34.80;;
25199;SDS011;33094;48.782;9.162;2023-04-16T07:12:19;70.55;;;35.50;;
25199;SDS011;33094;48.782;9.162;2023-04-16T07:14:45;73.13;;;34.58;;
25199;SDS011;33094;48.782;9.162;2023-04-16T07:17:11;66.88;;;34.78;;
25199;SDS011;33094;48.782;9.162;2023-04-16T07:19:36;70.03;;;34.28;;
25199;SDS011;33094;48.782;9.162;2023-04-16T07:22:02;58.72;;;31.58;;
25199;SDS011;33094;48.782;9.162;2023-04-16T07:24:28;64.50;;;33.00;;
25199;SDS011;33094;48.782;9.162;2023-04-16T07:26:54;65.30;;;32.83;;
25199;SDS011;33094;48.782;9.162;2023-04-16T07:29:19;66.55;;;31.70;;
25199;SDS011;33094;48.782;9.162;2023-04-16T07:31:45;59.40;;;31.23;;
25199;SDS011;33094;48.782;9.162;2023-04-16T07:34:11;53.55;;;29.52;;
25199;SDS011;33094;48.782;9.162;2023-04-16T07:36:36;54.67;;;28.58;;
25199;SDS011;33094;48.782;9.162;2023-04-16T07:39:03;52.25;;;28.00;;
25199;SDS011;33094;48.782;9.162;2023-04-16T07:41:30;54.80;;;30.98;;
25199;SDS011;33094;48.782;9.162;2023-04-16T07:43:56;49.60;;;27.92;;
25199;SDS011;33094;48.782;9.162;2023-04-16T07:46:24;51.28;;;27.17;;
25199;SDS011;33094;48.782;9.162;2023-04-16T07:48:49;46.70;;;28.00;;
25199;SDS011;33094;48.782;9.162;2023-04-16T07:51:15;52.60;;;27.90;;
25199;SDS011;33094;48.782;9.162;2023-04-16T07:53:41;54.85;;;28.60;;
25199;SDS011;33094;48.782;9.162;2023-04-16T07:56:07;57.80;;;29.90;;
25199;SDS011;33094;48.782;9.162;2023-04-16T07:58:33;51.33;;;27.77;;
25199;SDS011;33094;48.782;9.162;2023-04-16T08:00:59;52.13;;;27.80;;
25199;SDS011;33094;48.782;9.162;2023-04-16T08:03:25;54.67;;;29.33;;
25199;SDS011;33094;48.782;9.162;2023-04-16T08:05:51;50.15;;;28.63;;
25199;SDS011;33094;48.782;9.162;2023-04-16T08:08:16;48.05;;;26.50;;
25199;SDS011;33094;48.782;9.162;2023-04-16T08:10:42;46.72;;;27.13;;
25199;SDS011;33094;48.782;9.162;2023-04-16T08:13:08;46.78;;;25.83;;
25199;SDS011;33094;48.782;9.162;2023-04-16T08:15:33;47.30;;;26.65;;
25199;SDS011;33094;48.782;9.162;2023-04-16T08:17:59;45.50;;;26.17;;
25199;SDS011;33094;48.782;9.162;2023-04-16T08:20:25;44.38;;;25.48;;
25199;SDS011;33094;48.782;9.162;2023-04-16T08:22:52;45.13;;;25.23;;
25199;SDS011;33094;48.782;9.162;2023-04-16T08:25:18;38.20;;;23.90;;
25199;SDS011;33094;48.782;9.162;2023-04-16T08:27:44;42.20;;;23.90;;
25199;SDS011;33094;48.782;9.162;2023-04-16T08:30:10;44.05;;;23.75;;
25199;SDS011;33094;48.782;9.162;2023-04-16T08:32:36;39.45;;;23.38;;
25199;SDS011;33094;48.782;9.162;2023-04-16T08:35:02;39.60;;;24.02;;
25199;SDS011;33094;48.782;9.162;2023-04-16T08:37:27;39.28;;;23.75;;
25199;SDS011;33094;48.782;9.162;2023-04-16T08:39:53;43.88;;;24.33;;
25199;SDS011;33094;48.782;9.162;2023-04-16T08:42:29;40.75;;;25.60;;
25199;SDS011;33094;48.782;9.162;2023-04-16T08:45:12;43.50;;;26.13;;
25199;SDS011;33094;48.782;9.162;2023-04-16T08:47:43;44.50;;;26.25;;
25199;SDS011;33094;48.782;9.162;2023-04-16T08:50:15;40.38;;;25.23;;
25199;SDS011;33094;48.782;9.162;2023-04-16T08:52:44;41.42;;;25.40;;
25199;SDS011;33094;48.782;9.162;2023-04-16T08:55:16;43.55;;;25.67;;
25199;SDS011;33094;48.782;9.162;2023-04-16T08:57:46;38.75;;;24.20;;
25199;SDS011;33094;48.782;9.162;2023-04-16T09:00:14;38.55;;;23.45;;
25199;SDS011;33094;48.782;9.162;2023-04-16T09:02:41;41.05;;;23.92;;
25199;SDS011;33094;48.782;9.162;2023-04-16T09:05:25;38.33;;;22.45;;
25199;SDS011;33094;48.782;9.162;2023-04-16T09:07:53;45.70;;;25.33;;
25199;SDS011;33094;48.782;9.162;2023-04-16T09:10:27;39.50;;;24.17;;
25199;SDS011;33094;48.782;9.162;2023-04-16T09:12:55;41.25;;;23.25;;
25199;SDS011;33094;48.782;9.162;2023-04-16T09:15:22;40.30;;;23.42;;
25199;SDS011;33094;48.782;9.162;2023-04-16T09:17:49;38.22;;;22.63;;
25199;SDS011;33094;48.782;9.162;2023-04-16T09:20:16;36.45;;;22.73;;
25199;SDS011;33094;48.782;9.162;2023-04-16T09:22:42;39.00;;;22.58;;
25199;SDS011;33094;48.782;9.162;2023-04-16T09:25:08;38.53;;;21.52;;
25199;SDS011;33094;48.782;9.162;2023-04-16T09:27:35;33.17;;;20.15;;
25199;SDS011;33094;48.782;9.162;2023-04-16T09:30:05;37.30;;;20.63;;
25199;SDS011;33094;48.782;9.162;2023-04-16T09:32:45;32.90;;;21.30;;
25199;SDS011;33094;48.782;9.162;2023-04-16T09:35:11;35.65;;;22.88;;
25199;SDS011;33094;48.782;9.162;2023-04-16T09:37:38;35.03;;;20.73;;
25199;SDS011;33094;48.782;9.162;2023-04-16T09:40:04;35.03;;;21.17;;
25199;SDS011;33094;48.782;9.162;2023-04-16T09:42:31;43.65;;;22.10;;
25199;SDS011;33094;48.782;9.162;2023-04-16T09:44:58;32.85;;;20.52;;
25199;SDS011;33094;48.782;9.162;2023-04-16T09:47:25;49.90;;;26.60;;
25199;SDS011;33094;48.782;9.162;2023-04-16T09:50:03;38.53;;;22.75;;
25199;SDS011;33094;48.782;9.162;2023-04-16T09:52:30;38.07;;;20.13;;
25199;SDS011;33094;48.782;9.162;2023-04-16T09:54:55;31.08;;;19.98;;
25199;SDS011;33094;48.782;9.162;2023-04-16T09:57:22;38.33;;;20.73;;
25199;SDS011;33094;48.782;9.162;2023-04-16T09:59:51;39.15;;;22.98;;
25199;SDS011;33094;48.782;9.162;2023-04-16T10:02:28;37.85;;;21.02;;
25199;SDS011;33094;48.782;9.162;2023-04-16T10:04:55;38.08;;;21.02;;
25199;SDS011;33094;48.782;9.162;2023-04-16T10:07:21;35.25;;;21.05;;
25199;SDS011;33094;48.782;9.162;2023-04-16T10:09:51;39.13;;;21.50;;
25199;SDS011;33094;48.782;9.162;2023-04-16T10:12:17;35.70;;;21.63;;
25199;SDS011;33094;48.782;9.162;2023-04-16T10:14:44;40.70;;;22.05;;
25199;SDS011;33094;48.782;9.162;2023-04-16T10:17:09;38.65;;;19.65;;
25199;SDS011;33094;48.782;9.162;2023-04-16T10:19:35;38.80;;;21.63;;
25199;SDS011;33094;48.782;9.162;2023-04-16T10:22:01;34.65;;;20.88;;
25199;SDS011;33094;48.782;9.162;2023-04-16T10:24:28;38.53;;;22.25;;
25199;SDS011;33094;48.782;9.162;2023-04-16T10:29:21;33.23;;;20.67;;
25199;SDS011;33094;48.782;9.162;2023-04-16T10:31:47;38.28;;;20.25;;
25199;SDS011;33094;48.782;9.162;2023-04-16T10:36:40;37.55;;;21.48;;
25199;SDS011;33094;48.782;9.162;2023-04-16T10:39:10;37.55;;;21.92;;
25199;SDS011;33094;48.782;9.162;2023-04-16T10:41:37;34.78;;;19.63;;
25199;SDS011;33094;48.782;9.162;2023-04-16T10:44:07;31.52;;;19.58;;
25199;SDS011;33094;48.782;9.162;2023-04-16T10:46:40;33.33;;;19.05;;
25199;SDS011;33094;48.782;9.162;2023-04-16T10:51:40;34.20;;;19.25;;
25199;SDS011;33094;48.782;9.162;2023-04-16T10:56:38;29.40;;;17.75;;
25199;SDS011;33094;48.782;9.162;2023-04-16T10:59:05;31.13;;;18.77;;
25199;SDS011;33094;48.782;9.162;2023-04-16T11:06:27;26.65;;;16.02;;
25199;SDS011;33094;48.782;9.162;2023-04-16T11:08:53;26.08;;;15.00;;
25199;SDS011;33094;48.782;9.162;2023-04-16T11:11:19;26.58;;;16.95;;
25199;SDS011;33094;48.782;9.162;2023-04-16T11:13:45;29.20;;;16.95;;
25199;SDS011;33094;48.782;9.162;2023-04-16T11:16:12;25.65;;;15.93;;
25199;SDS011;33094;48.782;9.162;2023-04-16T11:21:07;28.10;;;15.27;;
25199;SDS011;33094;48.782;9.162;2023-04-16T11:26:22;21.90;;;13.48;;
25199;SDS011;33094;48.782;9.162;2023-04-16T11:28:52;26.67;;;15.30;;
25199;SDS011;33094;48.782;9.162;2023-04-16T11:31:20;23.17;;;14.70;;
25199;SDS011;33094;48.782;9.162;2023-04-16T11:33:47;28.17;;;15.18;;
25199;SDS011;33094;48.782;9.162;2023-04-16T11:36:14;25.42;;;14.23;;
25199;SDS011;33094;48.782;9.162;2023-04-16T11:38:40;23.25;;;13.93;;
25199;SDS011;33094;48.782;9.162;2023-04-16T11:41:06;16.98;;;10.30;;
25199;SDS011;33094;48.782;9.162;2023-04-16T11:43:36;22.13;;;12.73;;
25199;SDS011;33094;48.782;9.162;2023-04-16T11:46:02;19.58;;;10.45;;
25199;SDS011;33094;48.782;9.162;2023-04-16T11:48:49;18.67;;;11.55;;
25199;SDS011;33094;48.782;9.162;2023-04-16T11:51:19;18.25;;;10.55;;
25199;SDS011;33094;48.782;9.162;2023-04-16T11:53:52;14.43;;;9.50;;
25199;SDS011;33094;48.782;9.162;2023-04-16T11:56:28;19.90;;;11.05;;
25199;SDS011;33094;48.782;9.162;2023-04-16T12:41:24;10.93;;;7.32;;
25199;SDS011;33094;48.782;9.162;2023-04-16T13:01:56;10.88;;;7.90;;
25199;SDS011;33094;48.782;9.162;2023-04-16T13:04:22;11.52;;;7.25;;
25199;SDS011;33094;48.782;9.162;2023-04-16T13:06:48;12.52;;;8.52;;
25199;SDS011;33094;48.782;9.162;2023-04-16T13:09:16;12.25;;;7.97;;
25199;SDS011;33094;48.782;9.162;2023-04-16T13:45:26;14.95;;;10.27;;
25199;SDS011;33094;48.782;9.162;2023-04-16T13:50:29;14.95;;;10.05;;
25199;SDS011;33094;48.782;9.162;2023-04-16T13:55:34;17.15;;;10.80;;
25199;SDS011;33094;48.782;9.162;2023-04-16T14:13:44;15.57;;;11.18;;
25199;SDS011;33094;48.782;9.162;2023-04-16T14:23:58;19.83;;;12.73;;
25199;SDS011;33094;48.782;9.162;2023-04-16T14:26:28;21.30;;;12.73;;
25199;SDS011;33094;48.782;9.162;2023-04-16T14:34:09;20.13;;;13.18;;
25199;SDS011;33094;48.782;9.162;2023-04-16T14:47:08;24.60;;;15.77;;
25199;SDS011;33094;48.782;9.162;2023-04-16T14:52:13;28.60;;;17.17;;
25199;SDS011;33094;48.782;9.162;2023-04-16T14:57:15;28.20;;;17.13;;
25199;SDS011;33094;48.782;9.162;2023-04-16T14:59:41;28.83;;;18.43;;
25199;SDS011;33094;48.782;9.162;2023-04-16T15:02:10;30.83;;;19.08;;
25199;SDS011;33094;48.782;9.162;2023-04-16T15:04:37;28.15;;;18.58;;
25199;SDS011;33094;48.782;9.162;2023-04-16T15:07:03;29.30;;;18.58;;
25199;SDS011;33094;48.782;9.162;2023-04-16T15:09:29;33.10;;;18.60;;
25199;SDS011;33094;48.782;9.162;2023-04-16T15:11:59;34.88;;;21.20;;
25199;SDS011;33094;48.782;9.162;2023-04-16T15:14:25;30.65;;;19.27;;
25199;SDS011;33094;48.782;9.162;2023-04-16T15:16:51;33.25;;;20.05;;
25199;SDS011;33094;48.782;9.162;2023-04-16T15:19:17;37.23;;;20.30;;
25199;SDS011;33094;48.782;9.162;2023-04-16T15:21:43;36.88;;;21.40;;
25199;SDS011;33094;48.782;9.162;2023-04-16T15:24:09;40.58;;;22.98;;
25199;SDS011;33094;48.782;9.162;2023-04-16T15:26:36;41.75;;;22.85;;
25199;SDS011;33094;48.782;9.162;2023-04-16T15:29:02;42.05;;;24.40;;
25199;SDS011;33094;48.782;9.162;2023-04-16T15:31:28;37.67;;;23.95;;
25199;SDS011;33094;48.782;9.162;2023-04-16T15:33:54;41.25;;;24.63;;
25199;SDS011;33094;48.782;9.162;2023-04-16T15:36:20;40.10;;;24.52;;
25199;SDS011;33094;48.782;9.162;2023-04-16T15:38:46;39.00;;;25.17;;
25199;SDS011;33094;48.782;9.162;2023-04-16T15:41:12;43.20;;;24.70;;
25199;SDS011;33094;48.782;9.162;2023-04-16T15:43:38;37.50;;;23.92;;
25199;SDS011;33094;48.782;9.162;2023-04-16T15:46:03;47.67;;;26.02;;
25199;SDS011;33094;48.782;9.162;2023-04-16T15:48:29;46.20;;;25.02;;
25199;SDS011;33094;48.782;9.162;2023-04-16T15:50:55;40.65;;;23.92;;
25199;SDS011;33094;48.782;9.162;2023-04-16T15:53:21;36.67;;;23.63;;
25199;SDS011;33094;48.782;9.162;2023-04-16T15:55:46;38.85;;;23.00;;
25199;SDS011;33094;48.782;9.162;2023-04-16T15:58:16;38.38;;;22.98;;
25199;SDS011;33094;48.782;9.162;2023-04-16T16:00:42;38.67;;;22.42;;
25199;SDS011;33094;48.782;9.162;2023-04-16T16:03:10;39.58;;;23.95;;
25199;SDS011;33094;48.782;9.162;2023-04-16T16:05:36;38.53;;;24.02;;
25199;SDS011;33094;48.782;9.162;2023-04-16T16:08:01;41.83;;;25.58;;
25199;SDS011;33094;48.782;9.162;2023-04-16T16:10:27;42.97;;;24.80;;
25199;SDS011;33094;48.782;9.162;2023-04-16T16:12:53;48.53;;;26.42;;
25199;SDS011;33094;48.782;9.162;2023-04-16T16:15:19;46.40;;;26.33;;
25199;SDS011;33094;48.782;9.162;2023-04-16T16:17:44;44.60;;;25.70;;
25199;SDS011;33094;48.782;9.162;2023-04-16T16:20:10;44.08;;;25.95;;
25199;SDS011;33094;48.782;9.162;2023-04-16T16:22:37;43.72;;;25.23;;
25199;SDS011;33094;48.782;9.162;2023-04-16T16:25:03;44.43;;;26.47;;
25199;SDS011;33094;48.782;9.162;2023-04-16T16:27:30;48.42;;;27.58;;
25199;SDS011;33094;48.782;9.162;2023-04-16T16:29:55;42.95;;;27.00;;
25199;SDS011;33094;48.782;9.162;2023-04-16T16:32:21;48.22;;;27.15;;
25199;SDS011;33094;48.782;9.162;2023-04-16T16:34:47;48.92;;;29.75;;
25199;SDS011;33094;48.782;9.162;2023-04-16T16:37:13;49.72;;;29.90;;
25199;SDS011;33094;48.782;9.162;2023-04-16T16:39:38;50.10;;;29.52;;
25199;SDS011;33094;48.782;9.162;2023-04-16T16:42:04;49.20;;;29.42;;
25199;SDS011;33094;48.782;9.162;2023-04-16T16:44:30;57.95;;;31.88;;
25199;SDS011;33094;48.782;9.162;2023-04-16T16:46:56;52.28;;;30.85;;
25199;SDS011;33094;48.782;9.162;2023-04-16T16:49:21;51.35;;;31.00;;
25199;SDS011;33094;48.782;9.162;2023-04-16T16:51:47;55.95;;;33.67;;
25199;SDS011;33094;48.782;9.162;2023-04-16T16:54:13;59.40;;;33.05;;
25199;SDS011;33094;48.782;9.162;2023-04-16T16:56:39;51.83;;;29.63;;
25199;SDS011;33094;48.782;9.162;2023-04-16T16:59:05;52.53;;;30.20;;
25199;SDS011;33094;48.782;9.162;2023-04-16T17:01:32;53.10;;;29.75;;
25199;SDS011;33094;48.782;9.162;2023-04-16T17:03:58;50.22;;;31.02;;
25199;SDS011;33094;48.782;9.162;2023-04-16T17:06:24;50.58;;;30.52;;